createdAt,value
2018-03-28T00:00:54.416Z,41.90
2018-03-28T00:01:58.617Z,44.30
2018-03-28T00:03:03.404Z,43.50
2018-03-28T00:04:19.565Z,42.97
2018-03-28T00:05:23.776Z,44.53
2018-03-28T00:06:27.982Z,44.47
2018-03-28T00:07:32.973Z,43.27
2018-03-28T00:08:39.556Z,42.83
2018-03-28T00:09:45.166Z,40.60
2018-03-28T00:10:50.909Z,43.37
2018-03-28T00:11:55.394Z,44.17
2018-03-28T00:12:59.584Z,44.47
2018-03-28T00:14:05.680Z,42.73
2018-03-28T00:15:11.208Z,43.33
2018-03-28T00:16:18.992Z,43.27
2018-03-28T00:17:23.209Z,41.93
2018-03-28T00:18:27.409Z,43.90
2018-03-28T00:19:31.768Z,43.97
2018-03-28T00:20:40.861Z,43.53
2018-03-28T00:21:48.558Z,44.00
2018-03-28T00:22:53.102Z,44.17
2018-03-28T00:23:57.321Z,45.17
2018-03-28T00:25:01.573Z,44.20
2018-03-28T00:26:08.228Z,45.43
2018-03-28T00:27:14.291Z,43.37
2018-03-28T00:28:21.078Z,46.70
2018-03-28T00:29:25.344Z,42.90
2018-03-28T00:30:29.561Z,43.93
2018-03-28T00:31:35.777Z,42.60
2018-03-28T00:32:42.696Z,43.57
2018-03-28T00:33:48.524Z,41.97
2018-03-28T00:34:52.811Z,43.13
2018-03-28T00:35:57.789Z,44.87
2018-03-28T00:37:02.023Z,43.37
2018-03-28T00:38:09.454Z,43.10
2018-03-28T00:39:14.979Z,42.30
2018-03-28T00:40:21.218Z,42.10
2018-03-28T00:41:25.424Z,40.97
2018-03-28T00:42:29.619Z,42.60
2018-03-28T00:43:35.084Z,40.40
2018-03-28T00:44:41.011Z,41.43
2018-03-28T00:45:48.158Z,42.37
2018-03-28T00:46:52.757Z,41.10
2018-03-28T00:47:57.715Z,40.23
2018-03-28T00:49:03.679Z,41.40
2018-03-28T00:50:10.647Z,37.10
2018-03-28T00:52:54.808Z,38.63
2018-03-28T00:53:59.008Z,37.00
2018-03-28T00:55:05.103Z,37.27
2018-03-28T00:56:12.698Z,36.50
2018-03-28T00:57:19.001Z,36.23
2018-03-28T00:58:23.232Z,36.90
2018-03-28T00:59:27.471Z,36.70
2018-03-28T01:00:31.752Z,39.00
2018-03-28T01:01:40.340Z,35.57
2018-03-28T01:02:46.842Z,36.50
2018-03-28T01:03:51.294Z,37.60
2018-03-28T01:04:56.282Z,36.13
2018-03-28T01:06:00.888Z,36.20
2018-03-28T01:07:06.639Z,36.17
2018-03-28T01:08:12.787Z,37.47
2018-03-28T01:09:18.425Z,34.07
2018-03-28T01:10:22.680Z,37.80
2018-03-28T01:11:27.284Z,36.77
2018-03-28T01:12:31.627Z,35.67
2018-03-28T01:13:38.675Z,36.60
2018-03-28T01:14:45.392Z,36.00
2018-03-28T01:15:50.728Z,36.33
2018-03-28T01:16:54.980Z,35.40
2018-03-28T01:17:59.176Z,34.67
2018-03-28T01:19:05.899Z,34.37
2018-03-28T01:20:12.432Z,35.80
2018-03-28T01:21:18.369Z,33.50
2018-03-28T01:22:22.959Z,33.20
2018-03-28T01:23:27.168Z,32.80
2018-03-28T01:24:31.368Z,33.33
2018-03-28T01:25:39.122Z,35.20
2018-03-28T01:26:48.226Z,35.93
2018-03-28T01:27:53.102Z,32.47
2018-03-28T01:28:57.327Z,32.30
2018-03-28T01:30:01.635Z,33.60
2018-03-28T01:31:09.140Z,32.27
2018-03-28T01:32:17.534Z,32.43
2018-03-28T01:33:22.375Z,31.93
2018-03-28T01:34:27.350Z,32.73
2018-03-28T01:35:31.692Z,31.20
2018-03-28T01:36:38.009Z,31.43
2018-03-28T01:37:44.196Z,31.20
2018-03-28T01:38:49.337Z,31.43
2018-03-28T01:39:53.542Z,31.37
2018-03-28T01:40:57.786Z,32.23
2018-03-28T01:42:02.053Z,31.80
2018-03-28T01:43:08.811Z,30.83
2018-03-28T01:44:15.161Z,29.60
2018-03-28T01:45:20.370Z,30.27
2018-03-28T01:46:25.381Z,28.73
2018-03-28T01:47:29.573Z,30.73
2018-03-28T01:48:35.573Z,31.03
2018-03-28T01:49:41.476Z,31.33
2018-03-28T01:50:46.817Z,29.67
2018-03-28T01:51:51.730Z,30.83
2018-03-28T01:52:55.962Z,30.20
2018-03-28T01:54:00.172Z,29.77
2018-03-28T01:55:06.843Z,29.93
2018-03-28T01:56:12.483Z,31.10
2018-03-28T01:57:18.899Z,31.13
2018-03-28T01:58:23.536Z,31.40
2018-03-28T01:59:27.731Z,28.50
2018-03-28T02:00:31.924Z,32.30
2018-03-28T02:01:37.358Z,31.83
2018-03-28T02:02:43.841Z,29.20
2018-03-28T02:03:50.132Z,29.37
2018-03-28T02:04:54.353Z,30.00
2018-03-28T02:05:58.573Z,29.10
2018-03-28T02:07:03.852Z,28.50
2018-03-28T02:08:11.128Z,30.07
2018-03-28T02:09:19.067Z,28.40
2018-03-28T02:10:23.308Z,29.53
2018-03-28T02:11:27.520Z,30.53
2018-03-28T02:12:31.734Z,29.80
2018-03-28T02:13:42.452Z,27.53
2018-03-28T02:14:49.617Z,29.17
2018-03-28T02:15:53.996Z,31.23
2018-03-28T02:16:58.199Z,30.30
2018-03-28T02:18:02.465Z,29.30
2018-03-28T02:19:08.845Z,29.10
2018-03-28T02:20:14.768Z,26.27
2018-03-28T02:21:20.680Z,28.10
2018-03-28T02:22:25.646Z,28.07
2018-03-28T02:23:29.854Z,27.50
2018-03-28T02:24:35.194Z,29.60
2018-03-28T02:25:41.907Z,28.50
2018-03-28T02:26:48.959Z,29.77
2018-03-28T02:27:53.557Z,28.07
2018-03-28T02:28:57.750Z,28.20
2018-03-28T02:30:04.461Z,29.70
2018-03-28T02:31:11.659Z,29.13
2018-03-28T02:32:18.557Z,28.23
2018-03-28T02:33:25.162Z,31.37
2018-03-28T02:34:29.376Z,29.57
2018-03-28T02:35:35.647Z,29.83
2018-03-28T02:36:42.541Z,29.33
2018-03-28T02:37:48.735Z,28.97
2018-03-28T02:38:53.783Z,29.93
2018-03-28T02:39:58.761Z,30.13
2018-03-28T02:41:04.984Z,31.87
2018-03-28T02:42:11.908Z,28.80
2018-03-28T02:43:17.809Z,30.83
2018-03-28T02:44:22.129Z,31.90
2018-03-28T02:45:26.347Z,34.07
2018-03-28T02:46:30.564Z,31.30
2018-03-28T02:47:36.836Z,32.40
2018-03-28T02:48:42.361Z,29.23
2018-03-28T02:49:49.290Z,30.57
2018-03-28T02:50:54.251Z,29.90
2018-03-28T02:51:58.456Z,31.67
2018-03-28T02:53:04.220Z,31.50
2018-03-28T02:54:10.677Z,30.90
2018-03-28T02:55:16.185Z,29.77
2018-03-28T02:56:21.527Z,29.00
2018-03-28T02:57:25.761Z,30.80
2018-03-28T02:58:29.961Z,29.80
2018-03-28T02:59:35.616Z,30.00
2018-03-28T03:00:41.566Z,29.23
2018-03-28T03:01:46.336Z,26.60
2018-03-28T03:02:51.047Z,29.73
2018-03-28T03:03:55.239Z,27.53
2018-03-28T03:04:59.452Z,31.37
2018-03-28T03:06:04.705Z,28.90
2018-03-28T03:07:12.718Z,29.97
2018-03-28T03:08:19.604Z,28.40
2018-03-28T03:09:24.625Z,30.10
2018-03-28T03:10:28.823Z,28.67
2018-03-28T03:11:34.538Z,28.40
2018-03-28T03:12:40.266Z,29.00
2018-03-28T03:13:46.273Z,29.23
2018-03-28T03:14:51.067Z,28.30
2018-03-28T03:15:55.283Z,30.80
2018-03-28T03:16:59.474Z,29.07
2018-03-28T03:18:04.450Z,29.60
2018-03-28T03:19:11.853Z,30.23
2018-03-28T03:20:17.185Z,29.03
2018-03-28T03:21:21.511Z,30.80
2018-03-28T03:22:25.717Z,35.63
2018-03-28T03:23:30.679Z,30.60
2018-03-28T03:24:37.283Z,28.07
2018-03-28T03:25:42.103Z,29.50
2018-03-28T03:26:46.671Z,31.00
2018-03-28T03:27:50.905Z,29.30
2018-03-28T03:28:55.106Z,29.13
2018-03-28T03:29:59.337Z,29.83
2018-03-28T03:31:03.994Z,30.97
2018-03-28T03:32:09.062Z,30.77
2018-03-28T03:33:14.833Z,30.23
2018-03-28T03:34:19.870Z,28.80
2018-03-28T03:35:24.077Z,30.00
2018-03-28T03:36:28.282Z,30.53
2018-03-28T03:37:32.704Z,30.17
2018-03-28T03:38:39.321Z,30.47
2018-03-28T03:39:44.028Z,31.13
2018-03-28T03:40:49.172Z,30.30
2018-03-28T03:41:53.385Z,30.20
2018-03-28T03:42:58.377Z,29.17
2018-03-28T03:44:04.412Z,31.90
2018-03-28T03:45:10.770Z,31.33
2018-03-28T03:46:15.823Z,33.40
2018-03-28T03:47:20.600Z,30.67
2018-03-28T03:48:25.580Z,32.20
2018-03-28T03:49:29.817Z,31.93
2018-03-28T03:50:37.133Z,32.43
2018-03-28T03:51:43.760Z,33.87
2018-03-28T03:52:49.175Z,33.80
2018-03-28T03:53:53.400Z,31.53
2018-03-28T03:54:57.775Z,34.63
2018-03-28T03:56:02.264Z,35.20
2018-03-28T03:57:08.917Z,35.40
2018-03-28T03:58:15.243Z,35.17
2018-03-28T03:59:20.828Z,33.43
2018-03-28T04:00:25.051Z,34.50
2018-03-28T04:01:30.010Z,37.57
2018-03-28T04:02:37.029Z,34.00
2018-03-28T04:03:42.821Z,34.73
2018-03-28T04:04:50.467Z,33.03
2018-03-28T04:05:55.454Z,35.57
2018-03-28T04:06:59.664Z,33.63
2018-03-28T04:08:05.524Z,34.10
2018-03-28T04:09:13.106Z,33.50
2018-03-28T04:10:18.644Z,34.60
2018-03-28T04:11:22.867Z,33.23
2018-03-28T04:12:27.064Z,33.87
2018-03-28T04:13:31.268Z,34.27
2018-03-28T04:14:37.045Z,35.57
2018-03-28T04:15:44.326Z,34.97
2018-03-28T04:16:50.659Z,36.97
2018-03-28T04:17:54.861Z,35.20
2018-03-28T04:18:59.057Z,35.33
2018-03-28T04:20:06.821Z,35.50
2018-03-28T04:21:12.978Z,34.10
2018-03-28T04:22:18.390Z,36.23
2018-03-28T04:23:22.651Z,34.60
2018-03-28T04:24:26.885Z,37.17
2018-03-28T04:25:31.070Z,37.77
2018-03-28T04:26:38.097Z,35.50
2018-03-28T04:27:43.921Z,35.47
2018-03-28T04:28:49.482Z,36.93
2018-03-28T04:29:53.737Z,38.07
2018-03-28T04:30:57.926Z,35.80
2018-03-28T04:32:02.249Z,36.40
2018-03-28T04:33:12.063Z,35.30
2018-03-28T04:34:18.238Z,37.20
2018-03-28T04:35:22.614Z,35.50
2018-03-28T04:36:26.796Z,35.20
2018-03-28T04:37:31.024Z,36.83
2018-03-28T04:38:39.764Z,34.40
2018-03-28T04:39:46.344Z,35.50
2018-03-28T04:40:51.034Z,36.20
2018-03-28T04:41:56.103Z,37.83
2018-03-28T04:43:00.312Z,37.00
2018-03-28T04:44:09.084Z,35.97
2018-03-28T04:45:17.079Z,35.97
2018-03-28T04:46:21.461Z,36.03
2018-03-28T04:47:25.646Z,36.60
2018-03-28T04:48:29.839Z,38.20
2018-03-28T04:49:35.946Z,37.03
2018-03-28T04:50:42.814Z,38.00
2018-03-28T04:51:49.119Z,39.47
2018-03-28T04:52:54.078Z,37.20
2018-03-28T04:53:58.293Z,38.80
2018-03-28T04:55:05.063Z,43.03
2018-03-28T04:56:12.633Z,39.23
2018-03-28T04:57:19.268Z,41.03
2018-03-28T04:58:24.244Z,39.30
2018-03-28T04:59:28.426Z,39.27
2018-03-28T05:00:33.714Z,40.97
2018-03-28T05:01:40.824Z,38.57
2018-03-28T05:02:47.916Z,38.00
2018-03-28T05:03:52.284Z,40.03
2018-03-28T05:04:56.496Z,40.07
2018-03-28T05:06:01.093Z,41.13
2018-03-28T05:07:09.017Z,40.93
2018-03-28T05:08:15.676Z,40.70
2018-03-28T05:09:19.870Z,39.30
2018-03-28T05:10:24.094Z,41.93
2018-03-28T05:11:28.320Z,43.87
2018-03-28T05:12:33.010Z,39.57
2018-03-28T05:13:37.950Z,40.97
2018-03-28T05:14:43.266Z,40.33
2018-03-28T05:15:48.301Z,41.70
2018-03-28T05:16:52.509Z,42.43
2018-03-28T05:17:56.725Z,39.33
2018-03-28T05:19:00.915Z,40.87
2018-03-28T05:20:06.943Z,40.40
2018-03-28T05:21:11.542Z,40.57
2018-03-28T05:22:16.618Z,43.83
2018-03-28T05:23:21.193Z,42.53
2018-03-28T05:24:25.396Z,42.07
2018-03-28T05:25:29.604Z,42.50
2018-03-28T05:26:36.532Z,43.50
2018-03-28T05:27:41.929Z,42.30
2018-03-28T05:28:48.879Z,42.57
2018-03-28T05:29:53.084Z,44.30
2018-03-28T05:30:57.276Z,40.93
2018-03-28T05:32:01.489Z,43.97
2018-03-28T05:33:11.040Z,45.30
2018-03-28T05:34:16.826Z,44.23
2018-03-28T05:35:21.351Z,48.23
2018-03-28T05:36:26.338Z,46.80
2018-03-28T05:37:30.544Z,47.57
2018-03-28T05:38:38.439Z,47.30
2018-03-28T05:39:43.487Z,47.97
2018-03-28T05:40:49.737Z,47.43
2018-03-28T05:41:53.964Z,47.47
2018-03-28T05:42:59.167Z,52.37
2018-03-28T05:44:08.751Z,50.30
2018-03-28T05:45:18.316Z,48.90
2018-03-28T05:46:22.601Z,50.20
2018-03-28T05:47:26.803Z,49.07
2018-03-28T05:48:31.022Z,50.13
2018-03-28T05:49:39.008Z,51.57
2018-03-28T05:50:48.721Z,48.00
2018-03-28T05:51:52.986Z,46.90
2018-03-28T05:52:57.963Z,50.47
2018-03-28T05:54:03.186Z,49.20
2018-03-28T05:55:09.317Z,51.67
2018-03-28T05:56:14.565Z,51.73
2018-03-28T05:57:19.427Z,47.63
2018-03-28T05:58:23.643Z,48.80
2018-03-28T05:59:27.901Z,49.37
2018-03-28T06:00:34.375Z,47.50
2018-03-28T06:01:42.076Z,48.50
2018-03-28T06:02:47.310Z,46.03
2018-03-28T06:03:52.402Z,47.93
2018-03-28T06:04:57.421Z,45.87
2018-03-28T06:06:01.652Z,46.93
2018-03-28T06:07:08.255Z,45.43
2018-03-28T06:08:13.477Z,47.43
2018-03-28T06:09:18.961Z,46.37
2018-03-28T06:10:23.176Z,46.30
2018-03-28T06:11:27.388Z,48.30
2018-03-28T06:12:31.738Z,47.63
2018-03-28T06:13:38.449Z,46.50
2018-03-28T06:14:45.008Z,48.70
2018-03-28T06:15:50.599Z,50.33
2018-03-28T06:16:55.640Z,47.93
2018-03-28T06:18:00.616Z,49.50
2018-03-28T06:19:07.103Z,51.93
2018-03-28T06:20:13.961Z,50.23
2018-03-28T06:21:19.073Z,49.87
2018-03-28T06:22:23.336Z,51.03
2018-03-28T06:23:29.053Z,49.33
2018-03-28T06:24:33.806Z,52.20
2018-03-28T06:25:41.027Z,53.93
2018-03-28T06:26:47.182Z,50.03
2018-03-28T06:27:51.822Z,52.20
2018-03-28T06:28:56.059Z,51.30
2018-03-28T06:30:00.283Z,49.83
2018-03-28T06:31:06.722Z,55.53
2018-03-28T06:32:12.092Z,53.67
2018-03-28T06:33:16.427Z,52.33
2018-03-28T06:34:21.433Z,50.57
2018-03-28T06:35:25.725Z,49.40
2018-03-28T06:36:29.948Z,50.07
2018-03-28T06:37:35.374Z,49.13
2018-03-28T06:38:42.146Z,52.53
2018-03-28T06:39:47.429Z,52.27
2018-03-28T06:40:52.059Z,52.20
2018-03-28T06:41:56.599Z,52.37
2018-03-28T06:43:00.813Z,48.27
2018-03-28T06:44:10.124Z,50.60
2018-03-28T06:45:18.393Z,49.37
2018-03-28T06:46:22.665Z,47.80
2018-03-28T06:47:26.863Z,51.60
2018-03-28T06:48:31.188Z,50.17
2018-03-28T06:49:39.063Z,47.83
2018-03-28T06:50:45.231Z,48.50
2018-03-28T06:51:50.608Z,48.60
2018-03-28T06:52:54.847Z,49.47
2018-03-28T06:53:59.871Z,47.50
2018-03-28T06:55:07.679Z,45.03
2018-03-28T06:56:14.319Z,47.40
2018-03-28T06:57:20.084Z,47.43
2018-03-28T06:58:25.069Z,47.57
2018-03-28T06:59:29.325Z,46.90
2018-03-28T07:00:37.632Z,47.20
2018-03-28T07:01:44.395Z,49.80
2018-03-28T07:02:49.514Z,50.00
2018-03-28T07:03:53.710Z,46.47
2018-03-28T07:04:57.968Z,47.07
2018-03-28T07:06:02.346Z,47.23
2018-03-28T07:07:09.693Z,45.87
2018-03-28T07:08:14.617Z,44.77
2018-03-28T07:09:20.362Z,45.10
2018-03-28T07:10:24.675Z,48.90
2018-03-28T07:11:28.924Z,47.77
2018-03-28T07:12:34.285Z,48.27
2018-03-28T07:13:42.233Z,45.43
2018-03-28T07:14:49.155Z,47.40
2018-03-28T07:15:54.538Z,45.10
2018-03-28T07:16:58.749Z,46.50
2018-03-28T07:18:03.547Z,47.57
2018-03-28T07:19:10.925Z,45.73
2018-03-28T07:20:16.606Z,45.53
2018-03-28T07:21:21.590Z,45.47
2018-03-28T07:22:26.570Z,48.40
2018-03-28T07:23:30.766Z,47.90
2018-03-28T07:24:37.684Z,48.23
2018-03-28T07:25:43.425Z,48.30
2018-03-28T07:26:49.523Z,47.97
2018-03-28T07:27:53.746Z,49.40
2018-03-28T07:28:57.964Z,47.90
2018-03-28T07:30:02.203Z,48.20
2018-03-28T07:31:10.214Z,47.90
2018-03-28T07:32:17.850Z,45.67
2018-03-28T07:33:23.324Z,45.43
2018-03-28T07:34:27.535Z,47.80
2018-03-28T07:35:31.761Z,48.90
2018-03-28T07:36:39.610Z,45.60
2018-03-28T07:37:47.541Z,46.87
2018-03-28T07:38:52.118Z,50.43
2018-03-28T07:39:57.082Z,47.60
2018-03-28T07:41:01.288Z,48.90
2018-03-28T07:42:11.251Z,45.93
2018-03-28T07:43:19.423Z,45.57
2018-03-28T07:44:23.636Z,47.27
2018-03-28T07:45:27.837Z,50.13
2018-03-28T07:46:32.035Z,45.63
2018-03-28T07:47:43.269Z,43.00
2018-03-28T07:48:49.612Z,45.20
2018-03-28T07:49:53.822Z,46.03
2018-03-28T07:50:58.022Z,44.73
2018-03-28T07:52:02.852Z,46.47
2018-03-28T07:53:12.380Z,43.80
2018-03-28T07:54:17.755Z,44.00
2018-03-28T07:55:22.854Z,44.10
2018-03-28T07:56:27.063Z,42.53
2018-03-28T07:57:31.254Z,42.67
2018-03-28T07:58:40.875Z,41.50
2018-03-28T07:59:47.171Z,40.37
2018-03-28T08:00:51.980Z,41.73
2018-03-28T08:01:56.194Z,40.57
2018-03-28T08:03:00.391Z,40.67
2018-03-28T08:04:09.358Z,39.80
2018-03-28T08:05:15.049Z,42.90
2018-03-28T08:06:20.531Z,41.53
2018-03-28T08:07:24.756Z,37.77
2018-03-28T08:08:28.988Z,37.37
2018-03-28T08:09:34.947Z,37.40
2018-03-28T08:10:43.213Z,35.20
2018-03-28T08:11:49.568Z,36.47
2018-03-28T08:12:53.801Z,37.67
2018-03-28T08:13:57.995Z,37.90
2018-03-28T08:15:02.341Z,35.57
2018-03-28T08:16:10.377Z,36.87
2018-03-28T08:17:16.745Z,35.63
2018-03-28T08:18:21.322Z,36.10
2018-03-28T08:19:25.541Z,35.73
2018-03-28T08:20:29.762Z,36.37
2018-03-28T08:21:36.429Z,36.93
2018-03-28T08:22:43.874Z,37.23
2018-03-28T08:23:49.708Z,35.80
2018-03-28T08:24:53.931Z,36.87
2018-03-28T08:25:58.142Z,33.93
2018-03-28T08:27:02.902Z,37.43
2018-03-28T08:28:11.284Z,37.70
2018-03-28T08:29:19.198Z,37.73
2018-03-28T08:30:23.410Z,37.93
2018-03-28T08:31:27.600Z,34.93
2018-03-28T08:32:31.816Z,35.47
2018-03-28T08:33:39.540Z,38.63
2018-03-28T08:34:45.661Z,37.60
2018-03-28T08:35:50.751Z,38.80
2018-03-28T08:36:54.962Z,35.33
2018-03-28T08:37:59.927Z,38.50
2018-03-28T08:39:07.319Z,37.03
2018-03-28T08:40:15.224Z,36.77
2018-03-28T08:41:20.685Z,38.90
2018-03-28T08:42:25.682Z,37.33
2018-03-28T08:43:29.889Z,35.40
2018-03-28T08:44:37.410Z,35.70
2018-03-28T08:45:44.572Z,35.70
2018-03-28T08:46:50.486Z,36.43
2018-03-28T08:47:54.734Z,35.60
2018-03-28T08:48:58.938Z,35.40
2018-03-28T08:50:05.590Z,33.43
2018-03-28T08:51:11.418Z,35.10
2018-03-28T08:52:18.732Z,34.13
2018-03-28T08:53:22.903Z,31.70
2018-03-28T08:54:27.877Z,34.70
2018-03-28T08:55:32.153Z,35.30
2018-03-28T08:56:39.819Z,36.63
2018-03-28T08:57:46.724Z,33.90
2018-03-28T08:58:51.116Z,33.33
2018-03-28T08:59:55.323Z,34.43
2018-03-28T09:01:00.290Z,32.53
2018-03-28T09:02:07.519Z,33.00
2018-03-28T09:03:14.768Z,34.07
2018-03-28T09:04:19.520Z,33.47
2018-03-28T09:05:23.740Z,35.40
2018-03-28T09:06:27.927Z,34.83
2018-03-28T09:07:32.203Z,33.57
2018-03-28T09:08:39.379Z,33.70
2018-03-28T09:09:44.807Z,33.00
2018-03-28T09:10:49.632Z,33.37
2018-03-28T09:11:53.937Z,32.60
2018-03-28T09:12:58.916Z,30.87
2018-03-28T09:14:04.776Z,31.20
2018-03-28T09:15:11.363Z,34.40
2018-03-28T09:16:16.956Z,32.10
2018-03-28T09:17:21.437Z,32.87
2018-03-28T09:18:26.411Z,29.57
2018-03-28T09:19:30.641Z,31.40
2018-03-28T09:20:40.296Z,30.20
2018-03-28T09:21:47.263Z,31.23
2018-03-28T09:22:51.727Z,30.40
2018-03-28T09:23:55.941Z,30.20
2018-03-28T09:25:00.138Z,31.00
2018-03-28T09:26:08.150Z,29.83
2018-03-28T09:27:14.108Z,29.17
2018-03-28T09:28:20.660Z,32.07
2018-03-28T09:29:24.897Z,32.80
2018-03-28T09:30:29.089Z,31.60
2018-03-28T09:31:34.331Z,31.37
2018-03-28T09:32:40.451Z,31.10
2018-03-28T09:33:46.925Z,31.60
2018-03-28T09:34:51.511Z,30.63
2018-03-28T09:35:55.685Z,29.80
2018-03-28T09:36:59.903Z,29.27
2018-03-28T09:38:06.906Z,29.23
2018-03-28T09:39:13.797Z,29.47
2018-03-28T09:40:19.412Z,28.47
2018-03-28T09:41:23.615Z,28.73
2018-03-28T09:42:27.809Z,28.47
2018-03-28T09:43:32.118Z,29.10
2018-03-28T09:44:40.842Z,27.80
2018-03-28T09:45:48.412Z,27.20
2018-03-28T09:46:52.903Z,26.93
2018-03-28T09:47:57.097Z,28.60
2018-03-28T09:49:02.102Z,26.50
2018-03-28T09:50:10.685Z,26.80
2018-03-28T09:51:16.120Z,24.50
2018-03-28T09:52:21.162Z,24.23
2018-03-28T09:53:25.367Z,22.83
2018-03-28T09:54:29.600Z,22.43
2018-03-28T09:55:35.237Z,22.53
2018-03-28T09:56:43.265Z,21.97
2018-03-28T09:57:48.708Z,21.77
2018-03-28T09:58:53.308Z,22.33
2018-03-28T09:59:57.498Z,22.33
2018-03-28T10:01:09.085Z,22.30
2018-03-28T10:02:16.572Z,22.27
2018-03-28T10:03:21.501Z,21.17
2018-03-28T10:04:27.896Z,21.90
2018-03-28T10:05:38.422Z,19.33
2018-03-28T10:06:45.775Z,21.17
2018-03-28T10:07:50.971Z,23.53
2018-03-28T10:08:55.189Z,21.53
2018-03-28T10:09:59.460Z,21.30
2018-03-28T10:11:04.487Z,22.40
2018-03-28T10:12:10.005Z,21.33
2018-03-28T10:13:15.588Z,21.27
2018-03-28T10:14:20.271Z,20.77
2018-03-28T10:15:25.302Z,21.00
2018-03-28T10:16:30.267Z,21.63
2018-03-28T10:17:36.094Z,21.23
2018-03-28T10:18:41.701Z,21.63
2018-03-28T10:19:47.882Z,22.07
2018-03-28T10:20:52.286Z,21.70
2018-03-28T10:21:57.286Z,22.00
2018-03-28T10:23:01.509Z,22.80
2018-03-28T10:24:09.837Z,21.93
2018-03-28T10:25:15.277Z,22.07
2018-03-28T10:26:20.609Z,20.10
2018-03-28T10:27:24.856Z,20.20
2018-03-28T10:28:29.063Z,20.80
2018-03-28T10:29:34.245Z,20.63
2018-03-28T10:30:41.914Z,21.17
2018-03-28T10:31:47.831Z,19.43
2018-03-28T10:32:52.138Z,18.87
2018-03-28T10:33:56.357Z,20.30
2018-03-28T10:35:00.576Z,17.90
2018-03-28T10:36:08.506Z,19.00
2018-03-28T10:37:14.726Z,21.40
2018-03-28T10:38:19.446Z,18.70
2018-03-28T10:39:23.691Z,18.60
2018-03-28T10:40:27.923Z,19.27
2018-03-28T10:41:32.129Z,21.10
2018-03-28T10:42:40.983Z,21.00
2018-03-28T10:43:48.117Z,20.27
2018-03-28T10:44:52.433Z,19.77
2018-03-28T10:45:57.499Z,19.40
2018-03-28T10:47:01.679Z,18.20
2018-03-28T10:48:08.740Z,18.30
2018-03-28T10:49:16.412Z,22.97
2018-03-28T10:50:20.967Z,19.43
2018-03-28T10:51:25.157Z,18.03
2018-03-28T10:52:29.369Z,19.97
2018-03-28T10:53:34.868Z,17.47
2018-03-28T10:54:41.044Z,20.20
2018-03-28T10:55:48.434Z,18.77
2018-03-28T10:56:53.515Z,17.87
2018-03-28T10:57:57.729Z,20.60
2018-03-28T10:59:01.967Z,19.37
2018-03-28T11:00:10.808Z,19.40
2018-03-28T11:01:16.959Z,18.87
2018-03-28T11:02:21.407Z,20.93
2018-03-28T11:03:25.623Z,20.77
2018-03-28T11:04:29.875Z,21.90
2018-03-28T11:05:38.948Z,20.13
2018-03-28T11:06:44.970Z,20.00
2018-03-28T11:07:50.652Z,20.17
2018-03-28T11:08:54.894Z,21.23
2018-03-28T11:09:59.447Z,23.33
2018-03-28T11:11:05.555Z,21.50
2018-03-28T11:12:15.156Z,22.80
2018-03-28T11:13:20.999Z,23.40
2018-03-28T11:14:25.271Z,23.73
2018-03-28T11:15:29.467Z,24.53
2018-03-28T11:16:35.149Z,25.67
2018-03-28T11:17:42.311Z,23.10
2018-03-28T11:18:48.718Z,24.60
2018-03-28T11:19:53.013Z,26.00
2018-03-28T11:20:57.198Z,24.87
2018-03-28T11:22:02.191Z,24.50
2018-03-28T11:23:09.798Z,26.13
2018-03-28T11:24:15.639Z,24.50
2018-03-28T11:25:21.304Z,26.77
2018-03-28T11:26:25.508Z,24.20
2018-03-28T11:27:29.696Z,23.10
2018-03-28T11:28:36.127Z,22.33
2018-03-28T11:29:43.445Z,23.23
2018-03-28T11:30:50.344Z,23.07
2018-03-28T11:31:55.361Z,22.60
2018-03-28T11:32:59.596Z,22.10
2018-03-28T11:34:08.155Z,22.77
2018-03-28T11:35:13.891Z,20.93
2018-03-28T11:36:19.392Z,21.23
2018-03-28T11:37:23.664Z,22.23
2018-03-28T11:38:28.268Z,22.77
2018-03-28T11:39:33.741Z,21.53
2018-03-28T11:40:40.623Z,23.10
2018-03-28T11:41:46.668Z,21.80
2018-03-28T11:42:51.053Z,22.97
2018-03-28T11:43:55.306Z,22.77
2018-03-28T11:45:00.271Z,22.97
2018-03-28T11:46:06.571Z,23.57
2018-03-28T11:47:12.278Z,24.20
2018-03-28T11:48:19.467Z,22.43
2018-03-28T11:49:23.731Z,23.40
2018-03-28T11:50:27.953Z,22.80
2018-03-28T11:51:32.160Z,21.47
2018-03-28T11:52:37.308Z,23.50
2018-03-28T11:53:42.990Z,24.53
2018-03-28T11:54:47.584Z,22.57
2018-03-28T11:55:51.918Z,22.93
2018-03-28T11:56:56.133Z,21.77
2018-03-28T11:58:00.326Z,22.10
2018-03-28T11:59:06.964Z,22.30
2018-03-28T12:00:12.769Z,22.13
2018-03-28T12:01:17.919Z,23.67
2018-03-28T12:02:23.174Z,22.67
2018-03-28T12:03:27.359Z,25.00
2018-03-28T12:04:31.551Z,22.33
2018-03-28T12:05:38.727Z,22.80
2018-03-28T12:06:44.067Z,23.37
2018-03-28T12:07:49.643Z,24.60
2018-03-28T12:08:53.843Z,23.40
2018-03-28T12:09:58.847Z,24.30
2018-03-28T12:11:07.143Z,24.43
2018-03-28T12:12:13.072Z,24.17
2018-03-28T12:13:18.401Z,21.10
2018-03-28T12:14:23.780Z,21.40
2018-03-28T12:15:27.978Z,18.67
2018-03-28T12:16:32.179Z,21.13
2018-03-28T12:17:40.593Z,18.87
2018-03-28T12:18:45.878Z,18.97
2018-03-28T12:19:51.628Z,17.50
2018-03-28T12:20:55.839Z,17.87
2018-03-28T12:22:00.056Z,20.07
2018-03-28T12:23:05.975Z,19.00
2018-03-28T12:24:12.227Z,20.03
2018-03-28T12:25:17.475Z,19.90
2018-03-28T12:26:22.598Z,18.43
2018-03-28T12:27:26.802Z,19.00
2018-03-28T12:28:30.995Z,21.47
2018-03-28T12:29:37.409Z,20.50
2018-03-28T12:30:42.164Z,21.03
2018-03-28T12:31:47.781Z,18.77
2018-03-28T12:32:52.183Z,18.50
2018-03-28T12:33:56.390Z,18.80
2018-03-28T12:35:00.633Z,16.80
2018-03-28T12:36:07.595Z,20.37
2018-03-28T12:37:13.965Z,18.30
2018-03-28T12:38:19.212Z,17.63
2018-03-28T12:39:24.177Z,17.67
2018-03-28T12:40:28.425Z,17.20
2018-03-28T12:41:33.754Z,15.50
2018-03-28T12:42:42.455Z,15.00
2018-03-28T12:43:49.309Z,12.43
2018-03-28T12:44:53.528Z,13.00
2018-03-28T12:45:57.746Z,13.60
2018-03-28T12:47:01.953Z,12.80
2018-03-28T12:48:09.688Z,14.50
2018-03-28T12:49:15.541Z,12.87
2018-03-28T12:50:22.525Z,14.80
2018-03-28T12:51:27.507Z,15.40
2018-03-28T12:52:31.856Z,15.80
2018-03-28T12:53:42.520Z,15.63
2018-03-28T12:54:50.795Z,15.80
2018-03-28T12:55:55.032Z,16.73
2018-03-28T12:56:59.231Z,14.97
2018-03-28T12:58:06.391Z,14.87
2018-03-28T12:59:13.692Z,15.73
2018-03-28T13:00:21.941Z,16.63
2018-03-28T13:01:26.214Z,14.30
2018-03-28T13:02:30.441Z,14.07
2018-03-28T13:03:37.703Z,13.17
2018-03-28T13:04:44.745Z,14.37
2018-03-28T13:05:50.336Z,16.07
2018-03-28T13:06:55.046Z,15.93
2018-03-28T13:07:59.307Z,16.37
2018-03-28T13:09:07.909Z,14.67
2018-03-28T13:10:15.912Z,14.17
2018-03-28T13:11:20.734Z,14.00
2018-03-28T13:12:25.032Z,14.37
2018-03-28T13:13:29.240Z,13.43
2018-03-28T13:14:35.307Z,14.07
2018-03-28T13:15:43.488Z,13.83
2018-03-28T13:16:49.592Z,15.20
2018-03-28T13:17:54.165Z,15.80
2018-03-28T13:18:58.377Z,15.77
2018-03-28T13:20:05.745Z,15.77
2018-03-28T13:21:12.499Z,15.83
2018-03-28T13:22:19.824Z,15.47
2018-03-28T13:23:24.070Z,14.27
2018-03-28T13:24:28.277Z,13.97
2018-03-28T13:25:33.213Z,15.77
2018-03-28T13:26:41.514Z,15.40
2018-03-28T13:27:49.074Z,15.67
2018-03-28T13:28:53.383Z,15.50
2018-03-28T13:29:58.353Z,15.90
2018-03-28T13:31:03.032Z,15.10
2018-03-28T13:32:09.596Z,14.17
2018-03-28T13:33:15.335Z,15.17
2018-03-28T13:34:20.414Z,15.77
2018-03-28T13:35:24.601Z,16.40
2018-03-28T13:36:29.550Z,15.80
2018-03-28T13:37:36.070Z,15.43
2018-03-28T13:38:43.066Z,15.10
2018-03-28T13:39:48.808Z,15.50
2018-03-28T13:40:53.956Z,15.60
2018-03-28T13:41:58.911Z,16.90
2018-03-28T13:43:05.082Z,17.80
2018-03-28T13:44:12.657Z,18.90
2018-03-28T13:45:19.479Z,18.90
2018-03-28T13:46:23.685Z,19.50
2018-03-28T13:47:27.908Z,16.57
2018-03-28T13:48:35.073Z,19.43
2018-03-28T13:49:40.495Z,17.27
2018-03-28T13:50:48.389Z,17.93
2018-03-28T13:51:53.028Z,18.17
2018-03-28T13:52:57.219Z,20.33
2018-03-28T13:54:01.435Z,18.73
2018-03-28T13:55:09.424Z,20.60
2018-03-28T13:56:15.204Z,20.80
2018-03-28T13:57:20.704Z,20.47
2018-03-28T13:58:25.745Z,19.67
2018-03-28T13:59:29.935Z,20.43
2018-03-28T14:00:37.415Z,21.20
2018-03-28T14:01:43.527Z,17.50
2018-03-28T14:02:49.817Z,19.10
2018-03-28T14:03:54.029Z,18.67
2018-03-28T14:04:58.304Z,19.87
2018-03-28T14:06:03.073Z,19.90